createdAt,value
2017-05-16T00:00:10.898Z,40.99
2017-05-16T00:00:37.014Z,41.18
2017-05-16T00:01:03.135Z,41.38
2017-05-16T00:01:29.283Z,40.89
2017-05-16T00:01:55.400Z,40.99
2017-05-16T00:02:21.502Z,41.45
2017-05-16T00:02:47.632Z,41.06
2017-05-16T00:03:13.777Z,41.26
2017-05-16T00:03:39.902Z,41.45
2017-05-16T00:04:06.018Z,41.35
2017-05-16T00:04:32.154Z,41.45
2017-05-16T00:04:58.283Z,41.26
2017-05-16T00:05:24.374Z,41.16
2017-05-16T00:05:50.477Z,41.35
2017-05-16T00:06:16.586Z,40.88
2017-05-16T00:06:42.674Z,40.88
2017-05-16T00:07:08.777Z,41.16
2017-05-16T00:07:34.885Z,41.06
2017-05-16T00:08:00.975Z,41.45
2017-05-16T00:08:27.146Z,41.26
2017-05-16T00:08:53.268Z,41.16
2017-05-16T00:09:19.375Z,40.88
2017-05-16T00:09:45.535Z,41.06
2017-05-16T00:10:11.648Z,40.99
2017-05-16T00:10:37.774Z,41.38
2017-05-16T00:11:03.882Z,41.38
2017-05-16T00:11:30.027Z,41.38
2017-05-16T00:11:56.127Z,41.18
2017-05-16T00:12:22.262Z,41.08
2017-05-16T00:12:48.361Z,41.08
2017-05-16T00:13:14.473Z,40.89
2017-05-16T00:13:40.639Z,40.49
2017-05-16T00:14:06.737Z,40.51
2017-05-16T00:14:32.848Z,40.58
2017-05-16T00:14:59.064Z,40.97
2017-05-16T00:15:25.193Z,40.8
2017-05-16T00:15:51.309Z,41.08
2017-05-16T00:16:17.462Z,41.38
2017-05-16T00:16:43.567Z,41.08
2017-05-16T00:17:09.656Z,40.88
2017-05-16T00:17:35.780Z,41.16
2017-05-16T00:18:01.888Z,41.35
2017-05-16T00:18:28.030Z,41.16
2017-05-16T00:18:54.127Z,41.16
2017-05-16T00:19:20.262Z,41.35
2017-05-16T00:19:46.356Z,40.97
2017-05-16T00:20:12.491Z,41.06
2017-05-16T00:20:38.578Z,41.06
2017-05-16T00:21:04.701Z,41.18
2017-05-16T00:21:30.808Z,41.18
2017-05-16T00:21:56.901Z,41.08
2017-05-16T00:22:23.035Z,40.58
2017-05-16T00:22:49.218Z,40.88
2017-05-16T00:23:15.362Z,41.16
2017-05-16T00:23:41.452Z,41.47
2017-05-16T00:24:07.590Z,40.97
2017-05-16T00:24:33.739Z,40.88
2017-05-16T00:24:59.852Z,40.88
2017-05-16T00:25:25.988Z,41.08
2017-05-16T00:25:52.107Z,40.99
2017-05-16T00:26:18.242Z,41.08
2017-05-16T00:26:44.363Z,40.99
2017-05-16T00:27:10.477Z,40.8
2017-05-16T00:27:36.588Z,40.7
2017-05-16T00:28:02.685Z,40.8
2017-05-16T00:28:28.776Z,40.89
2017-05-16T00:28:54.883Z,41.28
2017-05-16T00:29:21.008Z,40.99
2017-05-16T00:29:47.099Z,40.78
2017-05-16T00:30:13.256Z,40.58
2017-05-16T00:30:39.364Z,40.88
2017-05-16T00:31:05.482Z,40.8
2017-05-16T00:31:31.579Z,41.06
2017-05-16T00:31:57.671Z,41.18
2017-05-16T00:32:23.776Z,41.28
2017-05-16T00:32:49.876Z,40.7
2017-05-16T00:33:16.019Z,41.06
2017-05-16T00:33:42.176Z,41.18
2017-05-16T00:34:08.312Z,40.99
2017-05-16T00:34:34.399Z,40.89
2017-05-16T00:35:00.555Z,41.08
2017-05-16T00:35:26.739Z,40.8
2017-05-16T00:35:52.857Z,40.99
2017-05-16T00:36:18.956Z,40.99
2017-05-16T00:36:45.080Z,40.89
2017-05-16T00:37:11.182Z,40.99
2017-05-16T00:37:37.347Z,40.61
2017-05-16T00:38:03.458Z,40.8
2017-05-16T00:38:29.558Z,40.58
2017-05-16T00:38:55.723Z,40.39
2017-05-16T00:39:21.863Z,40.49
2017-05-16T00:39:47.986Z,40.78
2017-05-16T00:40:14.120Z,40.58
2017-05-16T00:40:40.213Z,40.58
2017-05-16T00:41:06.305Z,40.88
2017-05-16T00:41:32.416Z,41.06
2017-05-16T00:41:58.568Z,40.97
2017-05-16T00:42:24.695Z,40.39
2017-05-16T00:42:50.785Z,40.97
2017-05-16T00:43:16.930Z,40.97
2017-05-16T00:43:43.092Z,40.97
2017-05-16T00:44:09.215Z,40.78
2017-05-16T00:44:35.307Z,40.3
2017-05-16T00:45:01.416Z,40.58
2017-05-16T00:45:27.568Z,40.58
2017-05-16T00:45:53.686Z,40.58
2017-05-16T00:46:19.794Z,40.49
2017-05-16T00:46:45.922Z,40.49
2017-05-16T00:47:12.060Z,40.49
2017-05-16T00:47:38.162Z,40.49
2017-05-16T00:48:04.331Z,40.88
2017-05-16T00:48:30.441Z,40.01
2017-05-16T00:48:56.541Z,40.01
2017-05-16T00:49:22.659Z,39.91
2017-05-16T00:49:48.766Z,39.91
2017-05-16T00:50:14.895Z,40.39
2017-05-16T00:50:40.988Z,40.88
2017-05-16T00:51:07.167Z,40.01
2017-05-16T00:51:33.248Z,39.81
2017-05-16T00:51:59.387Z,39.81
2017-05-16T00:52:25.512Z,40.2
2017-05-16T00:52:51.645Z,40.39
2017-05-16T00:53:17.737Z,40.58
2017-05-16T00:53:43.839Z,40.3
2017-05-16T00:54:09.984Z,40.11
2017-05-16T00:54:36.110Z,39.89
2017-05-16T00:55:02.216Z,40.01
2017-05-16T00:55:28.305Z,40.39
2017-05-16T00:55:54.435Z,40.08
2017-05-16T00:56:20.569Z,40.28
2017-05-16T00:56:46.686Z,40.08
2017-05-16T00:57:12.834Z,39.99
2017-05-16T00:57:38.939Z,39.91
2017-05-16T00:58:05.085Z,40.01
2017-05-16T00:58:31.177Z,40.01
2017-05-16T00:58:57.345Z,40.11
2017-05-16T00:59:23.497Z,39.99
2017-05-16T00:59:49.636Z,39.99
2017-05-16T01:00:15.742Z,39.79
2017-05-16T01:00:41.841Z,39.61
2017-05-16T01:01:07.933Z,39.51
2017-05-16T01:01:34.061Z,39.89
2017-05-16T01:02:00.198Z,40.56
2017-05-16T01:02:26.315Z,39.61
2017-05-16T01:02:52.445Z,40.28
2017-05-16T01:03:18.607Z,39.61
2017-05-16T01:03:44.748Z,39.89
2017-05-16T01:04:10.873Z,40.08
2017-05-16T01:04:37.023Z,39.61
2017-05-16T01:05:03.152Z,39.61
2017-05-16T01:05:29.259Z,39.79
2017-05-16T01:05:55.349Z,39.7
2017-05-16T01:06:21.451Z,39.51
2017-05-16T01:06:47.559Z,40.08
2017-05-16T01:07:13.672Z,39.99
2017-05-16T01:07:39.817Z,39.7
2017-05-16T01:08:05.980Z,39.61
2017-05-16T01:08:32.099Z,39.51
2017-05-16T01:08:58.218Z,39.7
2017-05-16T01:09:24.354Z,39.99
2017-05-16T01:09:50.507Z,39.99
2017-05-16T01:10:16.660Z,39.99
2017-05-16T01:10:42.751Z,39.89
2017-05-16T01:11:08.873Z,40.18
2017-05-16T01:11:34.980Z,40.01
2017-05-16T01:12:01.077Z,39.79
2017-05-16T01:12:27.192Z,39.89
2017-05-16T01:12:53.376Z,39.61
2017-05-16T01:13:19.526Z,39.61
2017-05-16T01:13:45.619Z,39.61
2017-05-16T01:14:11.754Z,40.01
2017-05-16T01:14:37.889Z,39.51
2017-05-16T01:15:04.028Z,39.72
2017-05-16T01:15:30.134Z,39.72
2017-05-16T01:15:56.250Z,39.91
2017-05-16T01:16:22.362Z,40.11
2017-05-16T01:16:48.511Z,40.3
2017-05-16T01:17:14.578Z,39.91
2017-05-16T01:17:40.735Z,39.72
2017-05-16T01:18:06.892Z,39.53
2017-05-16T01:18:33.057Z,40.11
2017-05-16T01:18:59.232Z,40.11
2017-05-16T01:19:25.340Z,39.53
2017-05-16T01:19:51.479Z,40.01
2017-05-16T01:20:17.580Z,40.11
2017-05-16T01:20:43.744Z,39.91
2017-05-16T01:21:09.859Z,40.01
2017-05-16T01:21:35.964Z,40.01
2017-05-16T01:22:02.055Z,39.81
2017-05-16T01:22:28.182Z,39.53
2017-05-16T01:22:54.344Z,40.2
2017-05-16T01:23:20.431Z,40.2
2017-05-16T01:23:46.558Z,40.2
2017-05-16T01:24:12.664Z,39.53
2017-05-16T01:24:38.781Z,39.72
2017-05-16T01:25:04.928Z,39.91
2017-05-16T01:25:31.035Z,39.91
2017-05-16T01:25:57.130Z,39.81
2017-05-16T01:26:23.228Z,39.91
2017-05-16T01:26:49.377Z,40.01
2017-05-16T01:27:15.476Z,40.11
2017-05-16T01:27:41.586Z,39.81
2017-05-16T01:28:07.728Z,40.11
2017-05-16T01:28:33.850Z,40.2
2017-05-16T01:28:59.985Z,39.91
2017-05-16T01:29:26.131Z,39.72
2017-05-16T01:29:52.271Z,39.72
2017-05-16T01:30:18.405Z,40.3
2017-05-16T01:30:44.556Z,39.91
2017-05-16T01:31:10.672Z,40.01
2017-05-16T01:31:36.780Z,40.01
2017-05-16T01:32:02.881Z,40.01
2017-05-16T01:32:28.980Z,40.01
2017-05-16T01:32:55.101Z,40.2
2017-05-16T01:33:21.192Z,40.01
2017-05-16T01:33:47.332Z,39.81
2017-05-16T01:34:13.509Z,39.91
2017-05-16T01:34:39.671Z,39.62
2017-05-16T01:35:05.801Z,40.01
2017-05-16T01:35:31.899Z,40.11
2017-05-16T01:35:57.991Z,39.81
2017-05-16T01:36:24.124Z,39.62
2017-05-16T01:36:50.233Z,39.72
2017-05-16T01:37:16.344Z,39.62
2017-05-16T01:37:42.445Z,40.01
2017-05-16T01:38:08.623Z,40.11
2017-05-16T01:38:34.745Z,39.81
2017-05-16T01:39:00.877Z,39.91
2017-05-16T01:39:27.055Z,39.61
2017-05-16T01:39:53.143Z,39.72
2017-05-16T01:40:19.273Z,40.08
2017-05-16T01:40:45.389Z,39.89
2017-05-16T01:41:11.512Z,39.99
2017-05-16T01:41:37.620Z,39.61
2017-05-16T01:42:03.712Z,39.79
2017-05-16T01:42:29.838Z,39.72
2017-05-16T01:42:55.972Z,39.99
2017-05-16T01:43:22.120Z,39.61
2017-05-16T01:43:48.309Z,39.51
2017-05-16T01:44:14.500Z,39.61
2017-05-16T01:44:40.598Z,39.7
2017-05-16T01:45:06.762Z,39.7
2017-05-16T01:45:32.917Z,40.08
2017-05-16T01:45:58.989Z,39.89
2017-05-16T01:46:25.083Z,40.2
2017-05-16T01:46:51.213Z,39.89
2017-05-16T01:47:17.374Z,39.7
2017-05-16T01:47:43.510Z,39.62
2017-05-16T01:48:09.690Z,39.51
2017-05-16T01:48:35.855Z,39.61
2017-05-16T01:49:01.970Z,39.61
2017-05-16T01:49:28.074Z,39.7
2017-05-16T01:49:54.164Z,39.7
2017-05-16T01:50:20.268Z,39.7
2017-05-16T01:50:46.401Z,39.31
2017-05-16T01:51:12.539Z,39.7
2017-05-16T01:51:38.639Z,39.61
2017-05-16T01:52:04.799Z,39.79
2017-05-16T01:52:30.925Z,39.89
2017-05-16T01:52:57.063Z,39.89
2017-05-16T01:53:23.170Z,39.79
2017-05-16T01:53:49.289Z,39.61
2017-05-16T01:54:15.379Z,40.01
2017-05-16T01:54:41.551Z,39.7
2017-05-16T01:55:07.660Z,39.62
2017-05-16T01:55:33.767Z,39.72
2017-05-16T01:55:59.885Z,40.08
2017-05-16T01:56:26.007Z,39.62
2017-05-16T01:56:52.114Z,39.61
2017-05-16T01:57:18.233Z,39.51
2017-05-16T01:57:44.351Z,40.08
2017-05-16T01:58:10.517Z,39.99
2017-05-16T01:58:36.694Z,39.89
2017-05-16T01:59:02.787Z,39.81
2017-05-16T01:59:28.973Z,40.01
2017-05-16T01:59:55.128Z,40.01
2017-05-16T02:00:21.278Z,40.2
2017-05-16T02:00:47.450Z,39.62
2017-05-16T02:01:13.563Z,39.14
2017-05-16T02:01:39.701Z,39.43
2017-05-16T02:02:05.798Z,39.72
2017-05-16T02:02:31.962Z,39.62
2017-05-16T02:02:58.096Z,39.53
2017-05-16T02:03:24.255Z,39.62
2017-05-16T02:03:50.396Z,39.43
2017-05-16T02:04:16.502Z,39.62
2017-05-16T02:04:42.636Z,39.62
2017-05-16T02:05:08.749Z,39.43
2017-05-16T02:05:34.850Z,39.33
2017-05-16T02:06:00.945Z,39.43
2017-05-16T02:06:27.082Z,39.72
2017-05-16T02:06:53.211Z,39.72
2017-05-16T02:07:19.326Z,39.43
2017-05-16T02:07:45.454Z,39.72
2017-05-16T02:08:11.589Z,39.72
2017-05-16T02:08:37.677Z,39.72
2017-05-16T02:09:03.829Z,39.62
2017-05-16T02:09:29.935Z,39.81
2017-05-16T02:09:56.043Z,40.01
2017-05-16T02:10:22.164Z,39.72
2017-05-16T02:10:48.271Z,39.33
2017-05-16T02:11:14.366Z,39.72
2017-05-16T02:11:40.527Z,39.53
2017-05-16T02:12:06.617Z,39.53
2017-05-16T02:12:32.717Z,39.53
2017-05-16T02:12:58.879Z,39.62
2017-05-16T02:13:24.972Z,39.43
2017-05-16T02:13:51.119Z,39.62
2017-05-16T02:14:17.280Z,39.62
2017-05-16T02:14:43.427Z,39.62
2017-05-16T02:15:09.520Z,39.53
2017-05-16T02:15:35.658Z,39.91
2017-05-16T02:16:01.782Z,40.01
2017-05-16T02:16:27.900Z,40.11
2017-05-16T02:16:54.007Z,40.01
2017-05-16T02:17:20.102Z,40.11
2017-05-16T02:17:46.208Z,39.72
2017-05-16T02:18:12.329Z,39.91
2017-05-16T02:18:38.420Z,39.72
2017-05-16T02:19:04.558Z,40.01
2017-05-16T02:19:30.657Z,39.62
2017-05-16T02:19:56.747Z,39.62
2017-05-16T02:20:22.854Z,39.91
2017-05-16T02:20:48.954Z,39.62
2017-05-16T02:21:15.044Z,39.33
2017-05-16T02:21:41.177Z,39.91
2017-05-16T02:22:07.339Z,40.11
2017-05-16T02:22:33.433Z,39.62
2017-05-16T02:22:59.585Z,40.3
2017-05-16T02:23:25.677Z,40.3
2017-05-16T02:23:51.841Z,40.01
2017-05-16T02:24:17.998Z,40.3
2017-05-16T02:24:44.140Z,40.3
2017-05-16T02:25:10.265Z,40.11
2017-05-16T02:25:36.400Z,40.01
2017-05-16T02:26:02.515Z,40.68
2017-05-16T02:26:28.611Z,40.39
2017-05-16T02:26:54.718Z,40.88
2017-05-16T02:27:20.857Z,40.78
2017-05-16T02:27:47.003Z,40.68
2017-05-16T02:28:13.165Z,40.78
2017-05-16T02:28:39.288Z,40.49
2017-05-16T02:29:05.454Z,40.68
2017-05-16T02:29:31.617Z,40.76
2017-05-16T02:29:57.771Z,40.49
2017-05-16T02:30:23.887Z,40.49
2017-05-16T02:30:50.023Z,40.49
2017-05-16T02:31:16.150Z,40.58
2017-05-16T02:31:42.290Z,40.3
2017-05-16T02:32:08.393Z,40.39
2017-05-16T02:32:34.501Z,40.49
2017-05-16T02:33:00.616Z,40.39
2017-05-16T02:33:26.718Z,40.39
2017-05-16T02:33:52.835Z,40.49
2017-05-16T02:34:18.969Z,40.68
2017-05-16T02:34:45.095Z,40.97
2017-05-16T02:35:11.186Z,41.06
2017-05-16T02:35:37.313Z,40.78
2017-05-16T02:36:03.476Z,40.97
2017-05-16T02:36:29.593Z,41.06
2017-05-16T02:36:55.748Z,41.16
2017-05-16T02:37:21.853Z,41.06
2017-05-16T02:37:47.948Z,40.97
2017-05-16T02:38:14.075Z,41.06
2017-05-16T02:38:40.205Z,41.06
2017-05-16T02:39:06.302Z,41.06
2017-05-16T02:39:32.434Z,41.05
2017-05-16T02:39:58.547Z,41.26
2017-05-16T02:40:24.647Z,41.24
2017-05-16T02:40:50.808Z,41.24
2017-05-16T02:41:16.899Z,41.33
2017-05-16T02:41:43.021Z,41.53
2017-05-16T02:42:09.166Z,41.26
2017-05-16T02:42:35.258Z,41.35
2017-05-16T02:43:01.374Z,41.35
2017-05-16T02:43:27.540Z,41.26
2017-05-16T02:43:53.666Z,41.06
2017-05-16T02:44:19.783Z,41.26
2017-05-16T02:44:45.945Z,41.26
2017-05-16T02:45:12.064Z,41.26
2017-05-16T02:45:38.172Z,41.06
2017-05-16T02:46:04.292Z,41.62
2017-05-16T02:46:30.383Z,41.55
2017-05-16T02:46:56.537Z,41.53
2017-05-16T02:47:22.635Z,41.62
2017-05-16T02:47:48.754Z,41.62
2017-05-16T02:48:14.914Z,41.55
2017-05-16T02:48:41.042Z,41.64
2017-05-16T02:49:07.131Z,41.55
2017-05-16T02:49:33.318Z,41.64
2017-05-16T02:49:59.481Z,41.45
2017-05-16T02:50:25.570Z,41.45
2017-05-16T02:50:51.724Z,41.55
2017-05-16T02:51:17.826Z,41.45
2017-05-16T02:51:43.918Z,41.35
2017-05-16T02:52:10.015Z,41.55
2017-05-16T02:52:36.123Z,41.83
2017-05-16T02:53:02.298Z,41.33
2017-05-16T02:53:28.416Z,41.33
2017-05-16T02:53:54.576Z,41.62
2017-05-16T02:54:20.701Z,41.55
2017-05-16T02:54:46.794Z,41.82
2017-05-16T02:55:12.928Z,41.72
2017-05-16T02:55:39.084Z,42.2
2017-05-16T02:56:05.266Z,42.3
2017-05-16T02:56:31.383Z,42.49
2017-05-16T02:56:57.475Z,41.72
2017-05-16T02:57:23.585Z,41.64
2017-05-16T02:57:49.737Z,41.74
2017-05-16T02:58:15.855Z,41.55
2017-05-16T02:58:41.993Z,41.74
2017-05-16T02:59:08.177Z,41.82
2017-05-16T02:59:34.319Z,41.72
2017-05-16T03:00:00.475Z,42.3
2017-05-16T03:00:26.580Z,42.3
2017-05-16T03:00:52.693Z,42.3
2017-05-16T03:01:18.819Z,42.49
2017-05-16T03:01:44.940Z,42.2
2017-05-16T03:02:11.076Z,42.1
2017-05-16T03:02:37.178Z,42.58
2017-05-16T03:03:03.295Z,42.58
2017-05-16T03:03:29.476Z,42.87
2017-05-16T03:03:55.639Z,42.68
2017-05-16T03:04:21.754Z,42.39
2017-05-16T03:04:47.908Z,42.39
2017-05-16T03:05:14.069Z,42.58
2017-05-16T03:05:40.214Z,42.3
2017-05-16T03:06:06.337Z,42.49
2017-05-16T03:06:32.471Z,42.3
2017-05-16T03:06:58.566Z,42.77
2017-05-16T03:07:24.726Z,43.07
2017-05-16T03:07:50.837Z,42.77
2017-05-16T03:08:16.989Z,42.77
2017-05-16T03:08:43.179Z,42.87
2017-05-16T03:09:09.293Z,42.68
2017-05-16T03:09:35.463Z,42.97
2017-05-16T03:10:01.570Z,43.07
2017-05-16T03:10:27.665Z,42.87
2017-05-16T03:10:53.804Z,42.77
2017-05-16T03:11:19.915Z,42.77
2017-05-16T03:11:46.013Z,43.26
2017-05-16T03:12:12.128Z,42.77
2017-05-16T03:12:38.236Z,42.87
2017-05-16T03:13:04.393Z,42.68
2017-05-16T03:13:30.532Z,42.87
2017-05-16T03:13:56.629Z,43.07
2017-05-16T03:14:22.762Z,42.77
2017-05-16T03:14:48.851Z,43.16
2017-05-16T03:15:15.003Z,43.07
2017-05-16T03:15:41.110Z,42.97
2017-05-16T03:16:07.227Z,43.26
2017-05-16T03:16:33.349Z,43.07
2017-05-16T03:16:59.458Z,42.77
2017-05-16T03:17:25.552Z,43.07
2017-05-16T03:17:51.669Z,42.87
2017-05-16T03:18:17.774Z,43.07
2017-05-16T03:18:43.900Z,43.35
2017-05-16T03:19:10.034Z,43.45
2017-05-16T03:19:36.149Z,43.45
2017-05-16T03:20:02.272Z,43.16
2017-05-16T03:20:28.403Z,43.35
2017-05-16T03:20:54.496Z,43.16
2017-05-16T03:21:20.613Z,42.68
2017-05-16T03:21:46.780Z,43.07
2017-05-16T03:22:12.876Z,43.07
2017-05-16T03:22:38.969Z,43.16
2017-05-16T03:23:05.153Z,42.87
2017-05-16T03:23:31.311Z,43.16
2017-05-16T03:23:57.433Z,43.26
2017-05-16T03:24:23.528Z,43.07
2017-05-16T03:24:49.643Z,43.45
2017-05-16T03:25:15.780Z,43.16
2017-05-16T03:25:41.907Z,43.26
2017-05-16T03:26:08.026Z,43.74
2017-05-16T03:26:34.155Z,43.64
2017-05-16T03:27:00.340Z,43.64
2017-05-16T03:27:26.455Z,43.84
2017-05-16T03:27:52.612Z,43.74
2017-05-16T03:28:18.719Z,43.64
2017-05-16T03:28:44.856Z,43.54
2017-05-16T03:29:11.013Z,43.64
2017-05-16T03:29:37.131Z,43.54
2017-05-16T03:30:03.261Z,43.64
2017-05-16T03:30:29.387Z,43.74
2017-05-16T03:30:55.480Z,43.64
2017-05-16T03:31:21.610Z,43.84
2017-05-16T03:31:47.717Z,43.64
2017-05-16T03:32:13.837Z,43.64
2017-05-16T03:32:39.986Z,43.64
2017-05-16T03:33:06.094Z,43.64
2017-05-16T03:33:32.236Z,43.64
2017-05-16T03:33:58.337Z,43.74
2017-05-16T03:34:24.495Z,44.02
2017-05-16T03:34:50.615Z,43.64
2017-05-16T03:35:16.722Z,43.64
2017-05-16T03:35:42.882Z,44.02
2017-05-16T03:36:08.984Z,44.02
2017-05-16T03:36:35.120Z,43.93
2017-05-16T03:37:01.210Z,43.93
2017-05-16T03:37:27.333Z,44.12
2017-05-16T03:37:53.440Z,44.12
2017-05-16T03:38:19.535Z,44.02
2017-05-16T03:38:45.627Z,44.22
2017-05-16T03:39:11.734Z,44.12
2017-05-16T03:39:37.914Z,44.31
2017-05-16T03:40:04.056Z,44.02
2017-05-16T03:40:30.191Z,44.22
2017-05-16T03:40:56.288Z,44.22
2017-05-16T03:41:22.447Z,44.12
2017-05-16T03:41:48.568Z,44.02
2017-05-16T03:42:14.661Z,43.45
2017-05-16T03:42:40.827Z,43.74
2017-05-16T03:43:06.983Z,43.54
2017-05-16T03:43:33.077Z,44.02
2017-05-16T03:43:59.235Z,43.93
2017-05-16T03:44:25.334Z,43.74
2017-05-16T03:44:51.475Z,43.64
2017-05-16T03:45:17.654Z,43.74
2017-05-16T03:45:43.789Z,43.93
2017-05-16T03:46:09.883Z,43.64
2017-05-16T03:46:36.008Z,43.45
2017-05-16T03:47:02.100Z,44.22
2017-05-16T03:47:28.237Z,44.12
2017-05-16T03:47:54.396Z,44.31
2017-05-16T03:48:20.508Z,44.12
2017-05-16T03:48:46.665Z,43.74
2017-05-16T03:49:12.798Z,43.93
2017-05-16T03:49:38.887Z,43.74
2017-05-16T03:50:05.041Z,43.64
2017-05-16T03:50:31.175Z,43.84
2017-05-16T03:50:57.290Z,44.02
2017-05-16T03:51:23.389Z,44.02
2017-05-16T03:51:49.566Z,44.22
2017-05-16T03:52:15.720Z,43.93
2017-05-16T03:52:41.856Z,43.74
2017-05-16T03:53:07.991Z,43.84
2017-05-16T03:53:34.121Z,43.54
2017-05-16T03:54:00.254Z,43.64
2017-05-16T03:54:26.369Z,43.93
2017-05-16T03:54:52.509Z,43.84
2017-05-16T03:55:18.643Z,43.93
2017-05-16T03:55:44.765Z,44.22
2017-05-16T03:56:10.855Z,43.93
2017-05-16T03:56:36.966Z,43.54
2017-05-16T03:57:03.117Z,43.84
2017-05-16T03:57:29.205Z,43.93
2017-05-16T03:57:55.365Z,44.02
2017-05-16T03:58:21.576Z,43.74
2017-05-16T03:58:47.680Z,43.84
2017-05-16T03:59:13.835Z,43.93
2017-05-16T03:59:39.999Z,44.02
2017-05-16T04:00:06.110Z,44.41
2017-05-16T04:00:32.214Z,44.31
2017-05-16T04:00:58.323Z,43.93
2017-05-16T04:01:24.436Z,43.74
2017-05-16T04:01:50.532Z,43.93
2017-05-16T04:02:16.668Z,44.22
2017-05-16T04:02:42.843Z,44.02
2017-05-16T04:03:08.946Z,44.51
2017-05-16T04:03:35.033Z,44.22
2017-05-16T04:04:01.187Z,44.22
2017-05-16T04:04:27.322Z,44.22
2017-05-16T04:04:53.514Z,44.12
2017-05-16T04:05:19.612Z,44.02
2017-05-16T04:05:45.746Z,44.02
2017-05-16T04:06:11.863Z,44.31
2017-05-16T04:06:37.955Z,44.22
2017-05-16T04:07:04.115Z,44.12
2017-05-16T04:07:30.213Z,44.22
2017-05-16T04:07:56.378Z,44.02
2017-05-16T04:08:22.537Z,44.31
2017-05-16T04:08:48.656Z,44.41
2017-05-16T04:09:14.818Z,44.41
2017-05-16T04:09:40.939Z,44.22
2017-05-16T04:10:07.029Z,44.41
2017-05-16T04:10:33.165Z,44.12
2017-05-16T04:10:59.262Z,44.22
2017-05-16T04:11:25.379Z,44.22
2017-05-16T04:11:51.485Z,44.12
2017-05-16T04:12:17.615Z,44.22
2017-05-16T04:12:43.730Z,44.31
2017-05-16T04:13:09.857Z,44.51
2017-05-16T04:13:35.965Z,44.6
2017-05-16T04:14:02.163Z,44.51
2017-05-16T04:14:28.313Z,44.6
2017-05-16T04:14:54.455Z,44.6
2017-05-16T04:15:20.582Z,44.22
2017-05-16T04:15:46.684Z,44.22
2017-05-16T04:16:12.800Z,44.51
2017-05-16T04:16:38.956Z,44.31
2017-05-16T04:17:05.063Z,44.22
2017-05-16T04:17:31.175Z,44.12
2017-05-16T04:17:57.356Z,44.31
2017-05-16T04:18:23.487Z,44.31
2017-05-16T04:18:49.579Z,44.12
2017-05-16T04:19:15.677Z,44.02
2017-05-16T04:19:41.775Z,44.7
2017-05-16T04:20:07.906Z,44.51
2017-05-16T04:20:34.012Z,44.51
2017-05-16T04:21:00.147Z,44.7
2017-05-16T04:21:26.274Z,44.7
2017-05-16T04:21:52.379Z,44.6
2017-05-16T04:22:18.470Z,44.6
2017-05-16T04:22:44.642Z,44.51
2017-05-16T04:23:10.748Z,44.12
2017-05-16T04:23:36.892Z,44.22
2017-05-16T04:24:03.008Z,44.6
2017-05-16T04:24:29.177Z,44.79
2017-05-16T04:24:55.357Z,44.7
2017-05-16T04:25:21.513Z,44.89
2017-05-16T04:25:47.598Z,44.79
2017-05-16T04:26:13.721Z,44.7
2017-05-16T04:26:39.829Z,44.7
2017-05-16T04:27:05.950Z,44.79
2017-05-16T04:27:32.063Z,44.6
2017-05-16T04:27:58.282Z,45.08
2017-05-16T04:28:24.460Z,45.18
2017-05-16T04:28:50.601Z,44.89
2017-05-16T04:29:16.735Z,44.89
2017-05-16T04:29:42.866Z,45.18
2017-05-16T04:30:08.980Z,45.18
2017-05-16T04:30:35.085Z,45.08
2017-05-16T04:31:01.176Z,45.18
2017-05-16T04:31:27.286Z,45.08
2017-05-16T04:31:53.411Z,45.08
2017-05-16T04:32:19.555Z,45.37
2017-05-16T04:32:45.717Z,45.08
2017-05-16T04:33:11.818Z,45.08
2017-05-16T04:33:37.908Z,45.37
2017-05-16T04:34:04.070Z,45.37
2017-05-16T04:34:30.179Z,45.28
2017-05-16T04:34:56.267Z,45.47
2017-05-16T04:35:22.370Z,45.37
2017-05-16T04:35:48.532Z,45.47
2017-05-16T04:36:14.647Z,45.56
2017-05-16T04:36:40.751Z,45.47
2017-05-16T04:37:06.894Z,45.37
2017-05-16T04:37:33.018Z,45.37
2017-05-16T04:37:59.185Z,45.18
2017-05-16T04:38:25.295Z,45.18
2017-05-16T04:38:51.452Z,45.37
2017-05-16T04:39:17.636Z,45.28
2017-05-16T04:39:43.728Z,45.47
2017-05-16T04:40:09.898Z,44.99
2017-05-16T04:40:36.033Z,45.56
2017-05-16T04:41:02.153Z,45.37
2017-05-16T04:41:28.270Z,45.28
2017-05-16T04:41:54.407Z,45.47
2017-05-16T04:42:20.530Z,45.28
2017-05-16T04:42:46.649Z,45.47
2017-05-16T04:43:12.834Z,45.37
2017-05-16T04:43:38.988Z,45.28
2017-05-16T04:44:05.079Z,45.28
2017-05-16T04:44:31.208Z,45.37
2017-05-16T04:44:57.316Z,45.18
2017-05-16T04:45:23.431Z,45.37
2017-05-16T04:45:49.582Z,45.37
2017-05-16T04:46:15.687Z,45.18
2017-05-16T04:46:41.778Z,45.37
2017-05-16T04:47:07.899Z,45.28
2017-05-16T04:47:34.000Z,45.47
2017-05-16T04:48:00.133Z,45.18
2017-05-16T04:48:26.268Z,44.99
2017-05-16T04:48:52.432Z,45.08
2017-05-16T04:49:18.578Z,44.99
2017-05-16T04:49:44.688Z,45.08
2017-05-16T04:50:10.828Z,45.08
2017-05-16T04:50:36.951Z,44.99
2017-05-16T04:51:03.058Z,45.47
2017-05-16T04:51:29.182Z,45.37
2017-05-16T04:51:55.324Z,45.28
2017-05-16T04:52:21.435Z,45.28
2017-05-16T04:52:47.586Z,45.37
2017-05-16T04:53:13.712Z,45.76
2017-05-16T04:53:39.829Z,45.56
2017-05-16T04:54:05.974Z,45.56
2017-05-16T04:54:32.108Z,45.56
2017-05-16T04:54:58.230Z,45.18
2017-05-16T04:55:24.319Z,45.28
2017-05-16T04:55:50.457Z,45.28
2017-05-16T04:56:16.584Z,45.28
2017-05-16T04:56:42.674Z,45.18
2017-05-16T04:57:08.781Z,45.28
2017-05-16T04:57:34.879Z,45.37
2017-05-16T04:58:01.021Z,45.18
2017-05-16T04:58:27.152Z,44.99
2017-05-16T04:58:53.245Z,45.18
2017-05-16T04:59:19.379Z,45.08
2017-05-16T04:59:45.504Z,44.99
2017-05-16T05:00:11.598Z,45.37
2017-05-16T05:00:37.703Z,45.47
2017-05-16T05:01:03.831Z,45.18
2017-05-16T05:01:29.924Z,44.89
2017-05-16T05:01:56.027Z,45.08
2017-05-16T05:02:22.162Z,44.89
2017-05-16T05:02:48.276Z,44.79
2017-05-16T05:03:14.426Z,44.79
2017-05-16T05:03:40.562Z,44.7
2017-05-16T05:04:06.727Z,44.79
2017-05-16T05:04:32.860Z,44.99
2017-05-16T05:04:59.003Z,45.01
2017-05-16T05:05:25.160Z,44.91
2017-05-16T05:05:51.394Z,44.51
2017-05-16T05:06:17.535Z,44.22
2017-05-16T05:06:43.634Z,44.24
2017-05-16T05:07:09.771Z,44.22
2017-05-16T05:07:35.859Z,44.6
2017-05-16T05:08:01.999Z,44.34
2017-05-16T05:08:28.131Z,44.6
2017-05-16T05:08:54.311Z,44.7
2017-05-16T05:09:20.427Z,44.79
2017-05-16T05:09:46.565Z,44.7
2017-05-16T05:10:12.662Z,44.7
2017-05-16T05:10:38.821Z,44.7
2017-05-16T05:11:04.939Z,44.7
2017-05-16T05:11:31.063Z,44.79
2017-05-16T05:11:57.197Z,44.99
2017-05-16T05:12:23.295Z,45.18
2017-05-16T05:12:49.410Z,44.89
2017-05-16T05:13:15.574Z,45.28
2017-05-16T05:13:41.700Z,45.37
2017-05-16T05:14:07.866Z,45.47
2017-05-16T05:14:34.003Z,45.37
2017-05-16T05:15:00.158Z,45.28
2017-05-16T05:15:26.282Z,45.28
2017-05-16T05:15:52.378Z,45.18
2017-05-16T05:16:18.516Z,45.08
2017-05-16T05:16:44.654Z,45.01
2017-05-16T05:17:10.753Z,45.29
2017-05-16T05:17:36.844Z,45.28
2017-05-16T05:18:03.000Z,45.2
2017-05-16T05:18:29.157Z,45.29
2017-05-16T05:18:55.274Z,45.39
2017-05-16T05:19:21.406Z,45.01
2017-05-16T05:19:47.545Z,45.2
2017-05-16T05:20:13.659Z,45.1
2017-05-16T05:20:39.757Z,45.2
2017-05-16T05:21:05.901Z,44.82
2017-05-16T05:21:32.008Z,45.18
2017-05-16T05:21:58.106Z,45.01
2017-05-16T05:22:24.198Z,45.39
2017-05-16T05:22:50.330Z,45.08
2017-05-16T05:23:16.522Z,44.99
2017-05-16T05:23:42.660Z,45.1
2017-05-16T05:24:08.813Z,45.01
2017-05-16T05:24:34.922Z,44.82
2017-05-16T05:25:01.013Z,44.91
2017-05-16T05:25:27.111Z,44.82
2017-05-16T05:25:53.244Z,44.82
2017-05-16T05:26:19.364Z,44.82
2017-05-16T05:26:45.504Z,45.2
2017-05-16T05:27:11.641Z,45.01
2017-05-16T05:27:37.767Z,45.39
2017-05-16T05:28:03.914Z,45.29
2017-05-16T05:28:30.049Z,45.29
2017-05-16T05:28:56.229Z,45.29
2017-05-16T05:29:22.349Z,45.49
2017-05-16T05:29:48.506Z,45.29
2017-05-16T05:30:14.637Z,45.2
2017-05-16T05:30:40.749Z,45.01
2017-05-16T05:31:06.878Z,44.79
2017-05-16T05:31:33.012Z,45.08
2017-05-16T05:31:59.153Z,45.47
2017-05-16T05:32:25.279Z,45.28
2017-05-16T05:32:51.417Z,45.76
2017-05-16T05:33:17.579Z,46.16
2017-05-16T05:33:43.684Z,46.26
2017-05-16T05:34:09.775Z,46.06
2017-05-16T05:34:35.962Z,45.39
2017-05-16T05:35:02.120Z,45.59
2017-05-16T05:35:28.265Z,45.39
2017-05-16T05:35:54.362Z,45.47
2017-05-16T05:36:20.598Z,45.29
2017-05-16T05:36:46.698Z,45.59
2017-05-16T05:37:12.817Z,45.39
2017-05-16T05:37:38.949Z,45.68